Time;durP1;ratioP1;P1;durP2;ratioP2;P2;SDS_P1;SDS_P2;PMS_P1;PMS_P2;Temp;Humidity;BMP_temperature;BMP_pressure;BME280_temperature;BME280_humidity;BME280_pressure;Samples;Min_cycle;Max_cycle;Signal;HPM_P1;HPM_P2
2022/09/20 00:01:38;;;;;;;13.70;9.50;;;;;;;11.44;75.68;99896.45;104582;1274;109382;-77
2022/09/20 00:04:11;;;;;;;11.80;8.50;;;;;;;11.42;75.69;99900.96;104217;1274;95233;-79
2022/09/20 00:06:42;;;;;;;11.40;8.50;;;;;;;11.41;75.61;99901.34;104543;1276;140380;-76
2022/09/20 00:09:11;;;;;;;10.70;7.70;;;;;;;11.39;75.60;99901.23;104200;1277;110184;-78
2022/09/20 00:11:38;;;;;;;12.10;8.10;;;;;;;11.43;75.69;99900.92;104440;1274;140590;-78
2022/09/20 00:14:09;;;;;;;12.10;8.80;;;;;;;11.42;75.40;99905.58;104558;1272;109306;-77
2022/09/20 00:16:39;;;;;;;11.50;8.30;;;;;;;11.37;75.45;99898.81;104557;1274;138818;-78
2022/09/20 00:19:15;;;;;;;11.80;8.00;;;;;;;11.35;75.67;99901.58;104572;1274;95159;-76
2022/09/20 00:21:43;;;;;;;12.10;8.00;;;;;;;11.30;75.62;99905.51;104599;1274;108708;-77
2022/09/20 00:24:11;;;;;;;11.40;8.10;;;;;;;11.27;75.76;99908.45;104532;1274;139159;-77
2022/09/20 00:26:39;;;;;;;13.10;8.50;;;;;;;11.27;75.84;99905.98;104565;1274;107934;-76
2022/09/20 00:29:07;;;;;;;11.10;7.60;;;;;;;11.25;75.85;99909.25;104309;1274;140802;-77
2022/09/20 00:31:37;;;;;;;11.60;8.20;;;;;;;11.17;76.02;99911.83;104607;1274;96219;-77
2022/09/20 00:36:52;;;;;;;12.50;7.60;;;;;;;11.11;76.27;99915.26;104582;1274;99957;-76
2022/09/20 00:39:19;;;;;;;11.10;8.00;;;;;;;11.11;76.28;99914.20;104601;1274;109283;-76
2022/09/20 00:41:47;;;;;;;12.00;8.10;;;;;;;11.10;76.25;99911.39;104571;1274;139091;-77
2022/09/20 00:44:49;;;;;;;12.00;8.50;;;;;;;11.08;76.33;99909.87;104562;1274;96135;-76
2022/09/20 00:47:29;;;;;;;12.30;8.00;;;;;;;11.09;76.18;99913.38;104492;1274;138814;-79
2022/09/20 00:50:07;;;;;;;12.00;8.00;;;;;;;11.08;76.22;99916.61;104554;1276;99928;-77
2022/09/20 00:52:35;;;;;;;13.00;8.30;;;;;;;11.04;76.33;99919.56;104438;1276;140191;-77
2022/09/20 00:55:09;;;;;;;12.50;8.10;;;;;;;11.01;76.42;99920.06;104216;1274;95282;-75
2022/09/20 00:57:37;;;;;;;14.50;8.40;;;;;;;11.00;76.50;99915.63;104257;1274;95224;-76
2022/09/20 01:00:08;;;;;;;12.60;8.10;;;;;;;11.00;76.55;99913.14;104124;1274;139439;-77
2022/09/20 01:02:40;;;;;;;12.60;8.30;;;;;;;10.96;76.55;99912.41;104367;1275;97675;-76
2022/09/20 01:05:10;;;;;;;12.70;8.50;;;;;;;10.97;76.59;99913.10;104023;1274;139471;-78
2022/09/20 01:07:40;;;;;;;11.50;8.00;;;;;;;11.00;76.61;99914.22;104708;1274;95240;-77
2022/09/20 01:10:08;;;;;;;12.10;8.20;;;;;;;10.95;76.47;99917.06;104507;1274;96250;-78
2022/09/20 01:12:39;;;;;;;12.20;8.30;;;;;;;10.93;76.55;99911.98;104409;1277;138717;-78
2022/09/20 01:15:09;;;;;;;13.20;7.90;;;;;;;10.91;76.57;99910.46;104597;1276;98581;-77
2022/09/20 01:17:40;;;;;;;11.80;7.40;;;;;;;10.91;76.56;99917.18;104518;1274;140940;-76
2022/09/20 01:20:23;;;;;;;11.40;8.30;;;;;;;10.93;76.66;99917.31;104678;1274;95471;-76
2022/09/20 01:22:50;;;;;;;11.30;8.10;;;;;;;10.95;76.42;99914.58;104488;1274;140106;-76
2022/09/20 01:25:46;;;;;;;11.20;7.90;;;;;;;10.93;76.36;99917.84;104556;1277;110009;-76
2022/09/20 01:28:15;;;;;;;13.20;8.50;;;;;;;10.90;76.17;99921.34;104541;1276;100051;-76
2022/09/20 01:30:49;;;;;;;11.80;7.60;;;;;;;10.84;76.56;99921.35;104379;1277;139534;-77
2022/09/20 01:33:26;;;;;;;11.70;7.50;;;;;;;10.86;76.55;99920.40;104613;1276;95181;-77
2022/09/20 01:35:59;;;;;;;12.60;7.50;;;;;;;10.91;76.41;99924.66;104419;1277;140216;-77
2022/09/20 01:38:53;;;;;;;12.00;7.40;;;;;;;10.97;76.23;99923.92;104551;1276;110200;-76
2022/09/20 01:41:36;;;;;;;12.70;7.60;;;;;;;10.98;76.12;99923.35;104377;1276;139375;-77
2022/09/20 01:44:20;;;;;;;11.40;7.70;;;;;;;10.94;75.93;99924.20;104626;1274;109658;-76
2022/09/20 01:46:58;;;;;;;12.20;7.50;;;;;;;10.88;76.11;99927.25;104459;1274;140855;-76
2022/09/20 01:49:53;;;;;;;11.80;7.20;;;;;;;10.88;76.25;99929.75;104703;1274;95495;-76
2022/09/20 01:52:50;;;;;;;10.70;7.40;;;;;;;10.88;75.93;99933.48;104562;1274;110201;-76
2022/09/20 01:55:53;;;;;;;11.40;7.00;;;;;;;10.84;75.99;99935.73;104605;1274;99762;-77
2022/09/20 01:58:58;;;;;;;12.30;7.20;;;;;;;10.84;76.12;99940.16;104602;1274;109430;-79
2022/09/20 02:01:52;;;;;;;11.70;7.90;;;;;;;10.84;76.13;99936.63;104530;1273;96985;-77
2022/09/20 02:04:32;;;;;;;11.50;7.80;;;;;;;10.87;75.98;99939.00;104584;1274;95769;-77
2022/09/20 02:07:10;;;;;;;11.20;7.30;;;;;;;10.85;76.02;99936.09;104526;1277;110049;-77
2022/09/20 02:10:03;;;;;;;11.10;7.40;;;;;;;10.83;75.96;99939.15;104315;1277;97272;-79
2022/09/20 02:12:51;;;;;;;11.50;7.60;;;;;;;10.81;75.96;99939.41;104506;1274;140378;-76
2022/09/20 02:15:43;;;;;;;11.90;7.60;;;;;;;10.78;76.06;99941.61;104559;1274;95211;-77
2022/09/20 02:18:44;;;;;;;12.00;7.30;;;;;;;10.75;76.07;99943.67;104486;1274;139636;-76
2022/09/20 02:21:49;;;;;;;10.80;7.20;;;;;;;10.74;76.12;99946.58;104572;1274;109947;-76
2022/09/20 02:24:22;;;;;;;11.70;8.00;;;;;;;10.73;76.22;99942.67;104422;1274;138700;-76
2022/09/20 02:27:15;;;;;;;11.70;7.80;;;;;;;10.74;76.25;99938.41;104604;1274;109429;-77
2022/09/20 02:30:05;;;;;;;10.50;7.60;;;;;;;10.73;76.11;99943.39;104515;1274;139633;-76
2022/09/20 02:32:58;;;;;;;10.80;7.30;;;;;;;10.77;76.11;99944.35;104598;1275;95746;-75
2022/09/20 02:35:45;;;;;;;11.00;7.60;;;;;;;10.76;76.11;99945.79;104394;1277;140886;-76
2022/09/20 02:38:41;;;;;;;12.10;7.50;;;;;;;10.76;76.04;99944.52;104603;1277;99907;-77
2022/09/20 02:41:31;;;;;;;12.40;8.50;;;;;;;10.73;76.14;99943.05;104453;1276;139291;-76
2022/09/20 02:44:03;;;;;;;11.70;7.40;;;;;;;10.73;76.03;99948.02;104589;1277;95140;-77
2022/09/20 02:47:03;;;;;;;12.50;7.30;;;;;;;10.70;76.08;99947.22;104432;1275;139929;-77
2022/09/20 02:49:40;;;;;;;11.40;8.00;;;;;;;10.68;76.06;99948.38;104375;1276;110148;-78
2022/09/20 02:52:29;;;;;;;10.90;7.50;;;;;;;10.62;76.31;99949.27;104647;1274;99390;-76
2022/09/20 02:55:20;;;;;;;11.20;7.60;;;;;;;10.66;76.22;99954.30;104617;1274;107843;-79
2022/09/20 02:58:06;;;;;;;11.10;7.00;;;;;;;10.61;76.29;99952.33;104623;1274;95339;-78
2022/09/20 03:00:46;;;;;;;10.80;7.20;;;;;;;10.63;76.35;99949.44;104552;1274;140244;-77
2022/09/20 03:03:39;;;;;;;11.10;7.20;;;;;;;10.68;76.30;99955.98;104642;1274;109092;-78
2022/09/20 03:06:18;;;;;;;12.30;7.20;;;;;;;10.72;76.04;99964.90;104455;1274;140095;-79
2022/09/20 03:09:09;;;;;;;12.40;6.80;;;;;;;10.70;76.03;99964.09;104468;1277;109594;-76
2022/09/20 03:11:40;;;;;;;10.30;6.60;;;;;;;10.68;75.94;99958.12;104370;1276;141809;-76
2022/09/20 03:14:23;;;;;;;10.10;6.20;;;;;;;10.71;75.85;99961.58;104581;1276;95731;-77
2022/09/20 03:17:11;;;;;;;11.40;7.10;;;;;;;10.73;75.96;99962.58;104506;1274;139260;-77
2022/09/20 03:19:47;;;;;;;10.90;6.80;;;;;;;10.68;75.65;99960.44;104599;1274;99979;-77
2022/09/20 03:22:27;;;;;;;10.70;6.70;;;;;;;10.66;75.94;99963.55;104673;1274;107794;-77
2022/09/20 03:24:57;;;;;;;9.40;6.40;;;;;;;10.72;75.81;99958.17;104658;1274;95352;-79
2022/09/20 03:27:51;;;;;;;9.70;6.20;;;;;;;10.77;75.70;99962.61;104701;1274;95217;-77
2022/09/20 03:30:43;;;;;;;11.20;6.70;;;;;;;10.79;75.57;99960.59;104643;1274;138451;-78
2022/09/20 03:33:25;;;;;;;10.00;6.60;;;;;;;10.70;75.44;99964.60;104862;1274;100491;-77
2022/09/20 03:36:12;;;;;;;10.40;6.10;;;;;;;10.64;75.59;99965.02;104526;1274;142033;-77
2022/09/20 03:38:58;;;;;;;10.20;6.00;;;;;;;10.61;75.83;99960.85;104659;1274;95224;-78
2022/09/20 03:42:00;;;;;;;9.30;6.20;;;;;;;10.61;75.94;99969.70;104618;1274;138862;-77
2022/09/20 03:44:47;;;;;;;11.20;6.50;;;;;;;10.68;75.65;99972.35;104662;1274;109811;-78
2022/09/20 03:47:31;;;;;;;10.00;6.50;;;;;;;10.61;75.80;99973.46;104602;1274;138897;-77
2022/09/20 03:50:13;;;;;;;9.70;6.30;;;;;;;10.55;75.86;99975.77;104744;1274;109764;-78
2022/09/20 03:53:00;;;;;;;11.10;6.50;;;;;;;10.52;76.07;99975.35;104612;1274;141380;-76
2022/09/20 03:55:52;;;;;;;10.20;6.70;;;;;;;10.54;76.19;99971.01;104754;1276;95447;-78
2022/09/20 03:58:38;;;;;;;8.70;6.00;;;;;;;10.58;76.05;99972.15;104748;1276;110145;-76
2022/09/20 04:01:27;;;;;;;10.70;6.40;;;;;;;10.55;75.82;99975.42;104477;1276;98071;-76
2022/09/20 04:04:27;;;;;;;11.00;6.30;;;;;;;10.50;76.16;99977.70;104658;1276;105920;-77
2022/09/20 04:07:16;;;;;;;9.30;5.70;;;;;;;10.54;76.12;99975.80;104593;1276;95249;-76
2022/09/20 04:10:06;;;;;;;9.70;6.30;;;;;;;10.52;76.03;99974.64;104767;1277;95242;-76
2022/09/20 04:12:39;;;;;;;10.90;6.80;;;;;;;10.51;76.10;99978.38;104402;1274;139025;-77
2022/09/20 04:15:59;;;;;;;10.90;6.40;;;;;;;10.49;76.17;99979.52;104617;1274;98352;-77
2022/09/20 04:18:57;;;;;;;10.30;6.30;;;;;;;10.50;76.29;99979.85;104104;1274;138643;-78
2022/09/20 04:21:55;;;;;;;11.00;6.60;;;;;;;10.52;76.14;99986.18;104602;1274;95456;-77
2022/09/20 04:24:29;;;;;;;10.50;6.30;;;;;;;10.56;76.13;99987.65;104416;1274;139053;-75
2022/09/20 04:27:26;;;;;;;11.20;7.00;;;;;;;10.58;75.89;99993.45;104644;1274;110661;-76
2022/09/20 04:30:04;;;;;;;9.70;7.00;;;;;;;10.58;75.95;99998.05;104071;1274;140276;-76
2022/09/20 04:32:31;;;;;;;11.60;7.50;;;;;;;10.56;75.92;100000.42;104543;1275;109590;-77
2022/09/20 04:38:15;;;;;;;12.20;7.40;;;;;;;10.51;76.05;100006.98;104584;1274;95204;-78
2022/09/20 04:40:58;;;;;;;10.60;7.40;;;;;;;10.49;76.15;100012.54;104625;1274;141125;-78
2022/09/20 04:43:41;;;;;;;11.70;7.90;;;;;;;10.47;75.95;100015.25;104785;1274;100107;-78
2022/09/20 04:46:43;;;;;;;10.70;7.80;;;;;;;10.43;76.21;100016.30;104691;1274;107886;-78
2022/09/20 04:49:55;;;;;;;12.20;7.70;;;;;;;10.48;76.17;100018.09;104794;1274;95748;-78
2022/09/20 04:52:33;;;;;;;18.70;12.30;;;;;;;10.45;76.29;100018.88;104711;1274;95759;-78
2022/09/20 04:55:19;;;;;;;12.10;8.60;;;;;;;10.47;76.34;100018.83;104571;1276;110720;-78
2022/09/20 04:57:47;;;;;;;11.60;8.60;;;;;;;10.48;76.19;100020.91;104803;1275;100301;-78
2022/09/20 05:00:19;;;;;;;13.60;8.70;;;;;;;10.47;76.24;100023.78;104647;1275;140389;-78
2022/09/20 05:03:04;;;;;;;11.70;8.60;;;;;;;10.48;76.17;100024.80;104887;1274;95535;-79
2022/09/20 05:05:55;;;;;;;11.90;8.10;;;;;;;10.47;76.07;100036.03;104562;1274;139959;-77
2022/09/20 05:09:01;;;;;;;10.10;7.20;;;;;;;10.49;76.32;100035.26;104246;1274;108260;-77
2022/09/20 05:11:54;;;;;;;12.30;7.60;;;;;;;10.52;76.13;100044.75;104545;1274;141406;-77
2022/09/20 05:14:56;;;;;;;11.10;7.70;;;;;;;10.63;76.10;100048.68;104637;1274;107824;-76
2022/09/20 05:17:35;;;;;;;12.30;8.10;;;;;;;10.58;75.82;100053.09;104015;1274;149301;-77
2022/09/20 05:20:33;;;;;;;12.50;8.40;;;;;;;10.52;75.84;100054.51;104576;1274;95544;-77
2022/09/20 05:23:38;;;;;;;12.30;7.80;;;;;;;10.56;75.97;100059.36;104345;1274;139087;-77
2022/09/20 05:26:31;;;;;;;12.80;8.80;;;;;;;10.56;75.81;100065.39;104550;1274;98359;-78
2022/09/20 05:29:09;;;;;;;12.40;8.40;;;;;;;10.62;76.05;100065.05;104833;1274;140891;-78
2022/09/20 05:31:45;;;;;;;11.30;7.80;;;;;;;10.62;75.75;100063.80;104633;1276;95769;-77
2022/09/20 05:34:41;;;;;;;12.80;8.20;;;;;;;10.61;75.75;100069.85;104239;1277;96015;-76
2022/09/20 05:37:24;;;;;;;12.10;8.30;;;;;;;10.61;75.72;100068.45;104563;1277;110098;-77
2022/09/20 05:40:00;;;;;;;12.90;8.60;;;;;;;10.61;75.85;100072.88;104510;1277;99363;-78
2022/09/20 05:42:43;;;;;;;12.20;8.50;;;;;;;10.67;75.59;100077.13;104148;1277;140954;-77
2022/09/20 05:45:38;;;;;;;12.30;8.70;;;;;;;10.68;75.62;100080.64;104701;1276;95563;-75
2022/09/20 05:48:39;;;;;;;12.40;8.80;;;;;;;10.67;75.77;100084.54;104552;1276;139870;-77
2022/09/20 05:51:28;;;;;;;11.90;9.00;;;;;;;10.62;75.49;100085.64;104694;1277;110413;-77
2022/09/20 05:54:14;;;;;;;13.50;9.50;;;;;;;10.62;75.71;100078.52;104075;1277;141290;-78
2022/09/20 05:57:01;;;;;;;11.90;8.90;;;;;;;10.64;75.93;100081.98;104494;1277;107783;-78
2022/09/20 05:59:48;;;;;;;13.70;8.90;;;;;;;10.67;75.70;100082.25;104340;1277;139981;-79
2022/09/20 06:02:23;;;;;;;12.60;9.20;;;;;;;10.63;75.71;100083.65;104954;1274;95206;-78
2022/09/20 06:05:08;;;;;;;12.70;9.10;;;;;;;10.65;75.89;100088.00;104240;1274;140832;-79
2022/09/20 06:08:09;;;;;;;14.30;9.80;;;;;;;10.62;75.52;100093.43;104766;1277;100044;-79
2022/09/20 06:10:57;;;;;;;14.40;10.00;;;;;;;10.58;75.95;100093.73;104506;1277;140133;-78
2022/09/20 06:13:51;;;;;;;13.70;9.50;;;;;;;10.63;76.07;100094.98;104599;1277;95236;-77
2022/09/20 06:16:41;;;;;;;13.80;9.40;;;;;;;10.62;75.80;100095.91;104566;1277;95213;-77
2022/09/20 06:19:21;;;;;;;12.70;9.10;;;;;;;10.58;75.80;100103.50;104501;1276;110163;-76
2022/09/20 06:21:54;;;;;;;13.70;8.40;;;;;;;10.57;75.89;100103.89;104229;1277;100480;-76
2022/09/20 06:24:26;;;;;;;12.50;8.50;;;;;;;10.57;76.15;100107.60;104094;1276;139698;-77
2022/09/20 06:26:55;;;;;;;12.60;8.60;;;;;;;10.54;76.25;100111.95;104641;1277;96024;-78
2022/09/20 06:29:33;;;;;;;12.90;8.10;;;;;;;10.57;76.36;100110.81;104518;1274;141559;-76
2022/09/20 06:32:01;;;;;;;12.90;9.20;;;;;;;10.62;76.16;100113.52;104737;1274;110227;-80
2022/09/20 06:34:29;;;;;;;13.50;9.10;;;;;;;10.64;76.04;100111.45;104610;1274;141041;-77
2022/09/20 06:43:20;;;;;;;12.90;8.60;;;;;;;10.79;76.05;100113.66;104573;1274;95234;-75
2022/09/20 06:45:48;;;;;;;12.10;8.00;;;;;;;10.85;75.82;100116.15;104345;1274;110213;-78
2022/09/20 06:48:18;;;;;;;12.30;8.80;;;;;;;10.87;75.54;100118.38;104590;1276;138990;-79
2022/09/20 06:50:45;;;;;;;14.00;8.80;;;;;;;10.93;75.55;100117.48;104737;1274;109307;-76
2022/09/20 06:53:16;;;;;;;11.90;8.50;;;;;;;11.00;75.47;100118.33;104138;1277;138930;-78
2022/09/20 06:55:45;;;;;;;12.40;8.40;;;;;;;11.05;75.30;100119.41;104766;1274;95228;-79
2022/09/20 06:58:13;;;;;;;12.00;7.90;;;;;;;11.09;75.25;100122.84;104978;1274;109902;-77
2022/09/20 07:00:41;;;;;;;13.50;8.70;;;;;;;11.17;75.18;100122.92;104668;1277;139056;-77
2022/09/20 07:03:11;;;;;;;11.80;8.90;;;;;;;11.24;74.85;100126.26;104626;1277;107784;-77
2022/09/20 07:05:39;;;;;;;11.50;8.90;;;;;;;11.27;74.77;100132.73;104649;1277;139866;-78
2022/09/20 07:08:07;;;;;;;12.10;8.90;;;;;;;11.29;74.79;100141.89;105055;1276;95026;-77
2022/09/20 07:10:35;;;;;;;11.90;8.90;;;;;;;11.32;74.73;100139.85;104733;1276;141829;-77
2022/09/20 07:13:04;;;;;;;12.30;8.90;;;;;;;11.32;74.30;100141.65;104349;1277;99928;-76
2022/09/20 07:15:33;;;;;;;13.90;9.50;;;;;;;11.31;74.53;100141.30;104737;1277;109985;-77
2022/09/20 07:18:01;;;;;;;12.20;9.00;;;;;;;11.33;74.30;100141.44;104451;1277;140260;-76
2022/09/20 07:20:29;;;;;;;12.70;8.90;;;;;;;11.30;74.28;100143.99;104470;1277;95241;-78
2022/09/20 07:22:56;;;;;;;12.20;9.20;;;;;;;11.34;74.47;100150.80;105145;1276;141407;-77
2022/09/20 07:25:24;;;;;;;13.10;8.90;;;;;;;11.38;74.28;100149.05;105113;1275;100191;-77
2022/09/20 07:27:52;;;;;;;12.60;9.30;;;;;;;11.37;74.26;100156.05;105137;1277;109276;-77
2022/09/20 07:30:20;;;;;;;13.00;9.30;;;;;;;11.41;74.29;100158.73;104973;1277;141040;-75
2022/09/20 07:32:49;;;;;;;11.30;8.70;;;;;;;11.47;74.33;100160.84;104330;1277;95799;-76
2022/09/20 07:35:16;;;;;;;12.30;8.90;;;;;;;11.52;74.34;100166.89;104224;1277;140449;-76
2022/09/20 07:37:44;;;;;;;12.60;9.60;;;;;;;11.56;74.39;100165.34;104331;1277;99380;-76
2022/09/20 07:40:13;;;;;;;13.40;9.50;;;;;;;11.57;74.43;100170.65;104192;1277;109865;-76
2022/09/20 07:42:41;;;;;;;12.70;9.80;;;;;;;11.52;74.17;100173.30;104066;1277;139503;-77
2022/09/20 07:45:10;;;;;;;12.80;9.30;;;;;;;11.53;74.65;100177.20;104513;1277;95314;-76
2022/09/20 07:47:40;;;;;;;13.10;9.30;;;;;;;11.55;74.78;100177.48;104326;1277;140733;-76
2022/09/20 07:50:10;;;;;;;13.20;9.30;;;;;;;11.57;74.93;100178.30;104497;1277;98803;-76
2022/09/20 07:52:38;;;;;;;12.00;9.40;;;;;;;11.59;74.73;100180.19;104396;1277;140929;-77
2022/09/20 07:55:06;;;;;;;13.10;10.50;;;;;;;11.57;74.78;100184.88;104969;1275;95195;-76
2022/09/20 07:57:36;;;;;;;11.70;9.10;;;;;;;11.60;75.05;100188.14;104303;1274;96016;-76
2022/09/20 08:00:07;;;;;;;12.30;9.80;;;;;;;11.68;75.03;100191.61;104140;1275;141258;-77
2022/09/20 08:02:39;;;;;;;12.10;9.00;;;;;;;11.74;74.88;100190.52;104712;1276;100131;-77
2022/09/20 08:05:07;;;;;;;11.60;9.50;;;;;;;11.78;74.95;100192.70;104700;1277;141223;-75
2022/09/20 08:07:35;;;;;;;12.40;9.50;;;;;;;11.78;74.77;100192.70;104187;1276;95468;-77
2022/09/20 08:10:03;;;;;;;10.60;8.20;;;;;;;11.77;74.55;100195.93;104244;1276;95230;-77
2022/09/20 08:12:32;;;;;;;11.80;9.30;;;;;;;11.73;74.18;100196.78;104575;1274;139235;-77
2022/09/20 08:15:19;;;;;;;12.30;9.50;;;;;;;11.71;74.69;100196.84;104654;1274;99942;-76
2022/09/20 08:17:48;;;;;;;14.20;10.50;;;;;;;11.79;75.04;100200.66;104505;1274;139213;-77
2022/09/20 08:20:15;;;;;;;12.40;10.50;;;;;;;11.85;75.14;100198.67;104577;1277;95514;-76
2022/09/20 08:22:43;;;;;;;13.80;10.80;;;;;;;11.84;74.82;100198.36;104679;1277;140936;-76
2022/09/20 08:25:23;;;;;;;13.70;10.40;;;;;;;11.80;74.72;100202.41;104460;1277;110212;-77
2022/09/20 08:27:52;;;;;;;12.50;10.30;;;;;;;11.82;75.29;100200.91;104647;1277;99428;-77
2022/09/20 08:30:20;;;;;;;13.70;11.00;;;;;;;11.91;75.16;100201.71;104518;1274;139309;-78
2022/09/20 08:32:54;;;;;;;13.40;11.90;;;;;;;11.92;75.08;100200.92;104585;1274;95229;-77
2022/09/20 08:35:24;;;;;;;15.20;11.20;;;;;;;11.97;75.02;100206.85;104595;1274;140776;-79
2022/09/20 08:37:54;;;;;;;13.40;11.70;;;;;;;12.02;74.92;100207.71;104733;1274;109159;-79
2022/09/20 08:40:23;;;;;;;13.80;11.60;;;;;;;12.12;74.58;100204.36;104825;1274;100129;-78
2022/09/20 08:42:53;;;;;;;15.60;13.60;;;;;;;12.19;74.14;100206.08;104623;1274;139083;-78
2022/09/20 08:45:24;;;;;;;14.80;13.20;;;;;;;12.30;74.46;100207.64;104630;1274;95188;-78
2022/09/20 08:48:15;;;;;;;14.40;12.00;;;;;;;12.34;74.19;100206.20;104583;1274;139266;-76
2022/09/20 08:50:42;;;;;;;13.70;12.20;;;;;;;12.38;73.82;100204.83;104645;1274;110202;-77
2022/09/20 08:53:13;;;;;;;14.10;11.80;;;;;;;12.41;73.81;100206.66;104603;1274;141864;-77
2022/09/20 08:55:42;;;;;;;12.40;10.00;;;;;;;12.47;73.66;100207.70;104607;1275;109874;-79
2022/09/20 08:58:13;;;;;;;12.50;10.20;;;;;;;12.55;73.58;100210.46;104815;1277;95293;-77
2022/09/20 09:00:45;;;;;;;12.30;10.10;;;;;;;12.58;73.27;100210.88;104700;1277;138502;-77
2022/09/20 09:03:16;;;;;;;13.10;10.90;;;;;;;12.65;73.28;100212.58;104675;1276;110218;-76
2022/09/20 09:05:45;;;;;;;11.50;10.30;;;;;;;12.65;73.24;100217.21;104654;1276;140548;-77
2022/09/20 09:08:16;;;;;;;10.90;9.30;;;;;;;12.64;73.40;100219.54;104602;1277;109238;-77
2022/09/20 09:10:53;;;;;;;10.60;9.40;;;;;;;12.68;73.22;100223.64;104628;1277;139166;-78
2022/09/20 09:13:36;;;;;;;11.20;9.90;;;;;;;12.68;73.27;100225.45;104675;1277;95163;-76
2022/09/20 09:16:18;;;;;;;10.50;9.20;;;;;;;12.67;73.18;100224.42;104654;1277;110127;-76
2022/09/20 09:18:56;;;;;;;10.50;9.40;;;;;;;12.69;73.28;100226.48;104666;1276;99861;-76
2022/09/20 09:21:27;;;;;;;10.50;8.90;;;;;;;12.74;73.32;100223.79;104756;1277;109952;-79
2022/09/20 09:24:05;;;;;;;10.60;9.50;;;;;;;12.82;73.06;100226.35;104606;1277;139638;-80
2022/09/20 09:26:45;;;;;;;10.30;8.60;;;;;;;12.79;72.83;100228.04;104817;1276;95170;-77
2022/09/20 09:29:20;;;;;;;10.40;8.10;;;;;;;12.81;72.81;100226.92;104552;1274;139445;-78
2022/09/20 09:31:51;;;;;;;9.70;7.90;;;;;;;12.84;72.69;100229.64;104727;1274;96805;-78
2022/09/20 09:34:34;;;;;;;9.30;7.50;;;;;;;12.93;73.40;100225.05;104883;1274;108486;-78
2022/09/20 09:37:01;;;;;;;10.40;7.50;;;;;;;13.02;72.92;100228.59;104717;1274;95688;-77
2022/09/20 09:39:33;;;;;;;9.40;7.50;;;;;;;13.04;72.97;100226.56;104631;1274;95204;-76
2022/09/20 09:42:19;;;;;;;9.20;7.80;;;;;;;13.06;72.60;100225.79;104661;1274;140443;-77
2022/09/20 09:44:49;;;;;;;9.00;7.50;;;;;;;13.15;72.74;100228.79;104804;1274;99879;-77
2022/09/20 09:47:27;;;;;;;8.80;6.90;;;;;;;13.21;72.21;100226.06;104637;1274;140112;-77
2022/09/20 09:49:58;;;;;;;9.20;6.80;;;;;;;13.26;72.22;100230.16;104665;1277;95268;-78
2022/09/20 09:52:32;;;;;;;9.20;7.60;;;;;;;13.31;71.88;100230.66;104565;1276;138599;-77
2022/09/20 09:55:02;;;;;;;9.40;8.00;;;;;;;13.43;71.94;100228.23;104302;1277;109263;-77
2022/09/20 09:58:11;;;;;;;11.60;10.10;;;;;;;13.46;71.50;100227.60;104291;1277;98410;-76
2022/09/20 10:00:45;;;;;;;11.60;10.10;;;;;;;13.47;72.04;100228.09;104446;1277;139443;-77
2022/09/20 10:03:29;;;;;;;10.40;9.20;;;;;;;13.48;71.77;100229.27;104722;1276;95751;-77
2022/09/20 10:06:15;;;;;;;10.50;8.80;;;;;;;13.43;71.35;100227.20;104440;1275;141214;-76
2022/09/20 10:09:01;;;;;;;11.20;9.80;;;;;;;13.44;71.40;100230.55;104432;1274;110201;-79
2022/09/20 10:11:46;;;;;;;10.00;8.90;;;;;;;13.55;71.50;100234.38;104354;1274;140366;-76
2022/09/20 10:14:23;;;;;;;9.20;8.20;;;;;;;13.64;71.41;100234.34;104566;1274;109339;-77
2022/09/20 10:17:18;;;;;;;9.80;8.10;;;;;;;13.70;70.68;100233.02;104136;1275;140305;-76
2022/09/20 10:20:07;;;;;;;11.30;8.60;;;;;;;14.04;70.85;100230.68;104163;1277;95658;-77
2022/09/20 10:22:47;;;;;;;10.00;9.00;;;;;;;14.04;69.85;100236.23;104369;1277;141431;-77
2022/09/20 10:25:39;;;;;;;10.10;8.90;;;;;;;14.04;70.46;100235.86;104240;1275;101008;-77
2022/09/20 10:28:31;;;;;;;9.40;7.30;;;;;;;14.23;69.67;100235.59;104546;1277;108836;-77
2022/09/20 10:31:15;;;;;;;9.00;7.60;;;;;;;14.56;67.89;100239.50;104586;1275;96001;-76
2022/09/20 10:34:07;;;;;;;9.20;7.30;;;;;;;14.56;68.52;100236.09;104586;1274;95789;-76
2022/09/20 10:36:50;;;;;;;8.50;6.60;;;;;;;14.70;68.31;100242.27;104173;1275;139423;-78
2022/09/20 10:39:28;;;;;;;8.50;6.70;;;;;;;14.63;67.50;100245.77;104232;1277;99859;-77
2022/09/20 10:45:15;;;;;;;9.10;7.40;;;;;;;14.70;67.52;100239.39;104487;1274;95595;-78
2022/09/20 10:48:11;;;;;;;8.60;6.60;;;;;;;14.78;66.99;100240.85;104368;1277;139053;-77
2022/09/20 10:50:56;;;;;;;9.10;6.50;;;;;;;14.80;67.37;100240.39;104247;1277;109739;-77
2022/09/20 10:53:45;;;;;;;8.10;6.40;;;;;;;14.72;67.27;100241.65;104382;1277;138885;-77
2022/09/20 10:56:32;;;;;;;7.90;6.60;;;;;;;14.56;67.01;100241.98;104829;1275;109204;-77
2022/09/20 10:59:28;;;;;;;8.20;6.20;;;;;;;14.46;67.41;100239.05;104655;1274;139122;-78
2022/09/20 11:02:36;;;;;;;7.40;5.90;;;;;;;14.27;67.29;100238.11;105119;1274;95225;-77
2022/09/20 11:05:29;;;;;;;7.80;5.40;;;;;;;14.27;68.25;100237.19;104480;1275;141192;-77
2022/09/20 11:08:10;;;;;;;7.60;4.80;;;;;;;14.38;67.41;100239.56;104801;1276;98286;-77
2022/09/20 11:10:45;;;;;;;6.80;4.80;;;;;;;14.55;67.61;100239.71;104609;1278;139498;-77
2022/09/20 11:13:26;;;;;;;6.80;4.70;;;;;;;14.76;67.50;100239.67;104718;1276;95337;-76
2022/09/20 11:16:13;;;;;;;7.10;4.50;;;;;;;14.92;66.92;100235.02;104259;1278;95351;-77
2022/09/20 11:18:49;;;;;;;6.40;3.90;;;;;;;15.09;66.71;100237.77;104187;1277;140894;-77
2022/09/20 11:21:42;;;;;;;7.00;3.90;;;;;;;15.16;66.42;100231.53;104269;1278;99827;-79
2022/09/20 11:24:23;;;;;;;5.90;3.70;;;;;;;15.27;65.58;100232.79;104617;1275;138374;-78
2022/09/20 11:27:17;;;;;;;7.40;4.10;;;;;;;15.41;65.13;100228.74;104454;1275;95267;-77
2022/09/20 11:30:00;;;;;;;6.40;4.10;;;;;;;15.42;63.81;100231.02;104612;1274;138480;-79
2022/09/20 11:32:51;;;;;;;7.50;3.80;;;;;;;15.39;63.61;100228.83;104700;1277;110224;-78
2022/09/20 11:35:32;;;;;;;6.20;3.60;;;;;;;15.37;63.86;100233.02;104356;1274;140375;-78
2022/09/20 11:38:23;;;;;;;6.00;3.10;;;;;;;15.30;63.58;100240.18;104721;1274;107746;-77
2022/09/20 11:40:59;;;;;;;6.00;3.50;;;;;;;15.18;63.86;100235.92;104613;1274;140794;-76
2022/09/20 11:43:29;;;;;;;5.80;3.60;;;;;;;15.23;63.89;100243.21;104662;1277;95723;-77
2022/09/20 11:46:05;;;;;;;5.60;3.80;;;;;;;15.33;63.90;100245.22;105253;1277;110245;-81
2022/09/20 11:48:41;;;;;;;7.20;3.50;;;;;;;15.43;63.80;100242.76;104639;1274;140247;-78
2022/09/20 11:51:42;;;;;;;6.20;3.50;;;;;;;15.50;63.24;100236.52;105182;1274;107795;-76
2022/09/20 11:54:19;;;;;;;6.70;3.50;;;;;;;15.46;62.78;100235.25;104810;1274;139399;-78
2022/09/20 11:56:55;;;;;;;6.30;3.50;;;;;;;15.44;62.96;100236.62;104835;1276;95227;-81
2022/09/20 11:59:38;;;;;;;5.50;3.50;;;;;;;15.47;63.36;100236.29;104874;1277;138630;-77
2022/09/20 12:02:18;;;;;;;5.50;3.50;;;;;;;15.54;63.47;100233.07;104975;1276;100699;-78
2022/09/20 12:04:51;;;;;;;5.90;3.30;;;;;;;15.63;63.35;100227.82;104856;1277;140731;-77
2022/09/20 12:07:23;;;;;;;5.20;3.20;;;;;;;15.68;63.22;100233.83;104878;1277;95266;-79
2022/09/20 12:09:56;;;;;;;5.50;3.50;;;;;;;15.70;61.65;100230.16;105041;1276;95224;-79
2022/09/20 12:12:38;;;;;;;6.20;3.20;;;;;;;15.71;62.17;100227.59;104903;1277;140958;-76
2022/09/20 12:15:23;;;;;;;6.20;3.10;;;;;;;15.76;62.50;100226.45;104484;1275;99659;-78
2022/09/20 12:17:51;;;;;;;5.30;3.00;;;;;;;15.66;61.59;100225.16;104397;1275;139905;-77
2022/09/20 12:20:31;;;;;;;6.20;3.10;;;;;;;15.49;62.41;100226.69;104344;1276;95233;-75